createdAt,value
2023-03-07T00:01:22.397Z,61.42
2023-03-07T00:08:42.750Z,61.54
2023-03-07T00:12:24.655Z,61.49
2023-03-07T00:32:07.205Z,61.42
2023-03-07T00:35:24.212Z,62.26
2023-03-07T00:42:22.413Z,62.26
2023-03-07T00:45:45.853Z,62.29
2023-03-07T00:49:05.368Z,62.24
2023-03-07T00:59:18.922Z,62.33
2023-03-07T01:02:52.560Z,62.44
2023-03-07T01:06:31.705Z,62.46
2023-03-07T01:10:21.491Z,62.51
2023-03-07T01:13:50.761Z,62.61
2023-03-07T01:17:40.859Z,62.57
2023-03-07T01:24:16.390Z,62.53
2023-03-07T01:31:19.217Z,62.55
2023-03-07T01:35:00.092Z,62.59
2023-03-07T01:38:27.936Z,62.51
2023-03-07T01:42:01.245Z,62.46
2023-03-07T01:49:44.529Z,62.91
2023-03-07T02:00:44.982Z,62.68
2023-03-07T02:04:15.303Z,62.86
2023-03-07T02:08:01.734Z,63.09
2023-03-07T02:11:28.570Z,63.11
2023-03-07T02:14:51.744Z,63.03
2023-03-07T02:18:44.595Z,63.20
2023-03-07T02:22:23.208Z,63.46
2023-03-07T02:26:10.570Z,63.54
2023-03-07T02:29:28.789Z,63.58
2023-03-07T02:33:09.827Z,63.62
2023-03-07T02:43:22.042Z,63.79
2023-03-07T02:46:55.346Z,63.65
2023-03-07T02:53:42.417Z,63.66
2023-03-07T02:57:04.317Z,63.65
2023-03-07T03:03:54.201Z,63.78
2023-03-07T03:07:15.137Z,63.83
2023-03-07T03:11:06.219Z,63.84
2023-03-07T03:15:02.604Z,63.69
2023-03-07T03:18:26.841Z,63.69
2023-03-07T03:22:03.697Z,63.80
2023-03-07T03:29:22.988Z,63.93
2023-03-07T03:33:01.222Z,63.90
2023-03-07T03:36:45.777Z,63.81
2023-03-07T03:40:18.536Z,63.88
2023-03-07T03:43:35.373Z,63.94
2023-03-07T03:47:06.736Z,63.94
2023-03-07T03:50:21.001Z,63.99
2023-03-07T04:01:15.987Z,64.33
2023-03-07T04:04:49.531Z,64.32
2023-03-07T04:08:07.775Z,64.31
2023-03-07T04:11:38.920Z,64.50
2023-03-07T04:18:52.742Z,64.76
2023-03-07T04:25:50.254Z,64.88
2023-03-07T04:29:52.978Z,64.99
2023-03-07T04:34:10.584Z,65.01
2023-03-07T04:37:49.455Z,65.15
2023-03-07T04:41:57.157Z,65.18
2023-03-07T04:45:44.252Z,65.16
2023-03-07T04:49:12.075Z,65.11
2023-03-07T04:52:45.367Z,65.12
2023-03-07T04:56:11.399Z,65.12
2023-03-07T04:59:44.831Z,65.14
2023-03-07T05:03:36.976Z,65.10
2023-03-07T05:10:55.050Z,65.21
2023-03-07T05:14:41.222Z,65.27
2023-03-07T05:18:33.515Z,65.30
2023-03-07T05:29:00.724Z,65.52
2023-03-07T05:32:32.325Z,65.61
2023-03-07T05:35:59.612Z,65.67
2023-03-07T06:18:10.994Z,66.26
2023-03-07T06:47:12.097Z,66.50
2023-03-07T07:19:56.787Z,66.51
2023-03-07T08:09:17.220Z,66.80
2023-03-07T09:06:21.044Z,65.11
2023-03-07T09:10:01.154Z,65.12
2023-03-07T09:13:52.469Z,65.27
2023-03-07T09:32:49.475Z,65.63
2023-03-07T09:36:12.410Z,65.59
2023-03-07T09:39:53.694Z,66.00
2023-03-07T09:50:34.518Z,65.56
2023-03-07T10:10:02.408Z,65.48
2023-03-07T11:10:22.405Z,65.01
2023-03-07T11:13:59.157Z,64.90
2023-03-07T11:17:34.616Z,64.11
2023-03-07T12:24:57.342Z,64.25
2023-03-07T12:32:15.966Z,64.21
2023-03-07T12:57:58.413Z,63.88
2023-03-07T13:01:28.989Z,63.83
2023-03-07T13:08:43.650Z,63.75
2023-03-07T13:12:00.351Z,63.71
2023-03-07T13:15:35.022Z,63.75
2023-03-07T13:18:45.184Z,63.72
2023-03-07T13:21:58.590Z,63.82
2023-03-07T13:25:14.867Z,63.76
2023-03-07T13:29:00.079Z,63.69
2023-03-07T13:32:13.548Z,63.72
2023-03-07T13:35:23.013Z,63.68
2023-03-07T13:46:09.187Z,64.16
2023-03-07T13:50:07.958Z,64.19
2023-03-07T13:53:58.427Z,64.19
2023-03-07T13:57:31.132Z,64.22
2023-03-07T14:11:50.110Z,64.69
2023-03-07T14:15:27.892Z,64.76
2023-03-07T14:19:29.693Z,64.82
2023-03-07T14:23:12.925Z,64.88
2023-03-07T14:26:58.014Z,64.96
2023-03-07T14:30:26.900Z,65.07
2023-03-07T14:34:28.887Z,65.11
2023-03-07T14:41:38.256Z,65.27
2023-03-07T15:11:49.200Z,65.59
2023-03-07T15:15:25.468Z,65.69
2023-03-07T15:18:57.342Z,65.83
2023-03-07T15:25:47.299Z,65.90
2023-03-07T15:32:59.189Z,65.98
2023-03-07T15:37:03.712Z,65.87
2023-03-07T15:40:45.735Z,66.05
2023-03-07T15:44:28.360Z,66.07
2023-03-07T15:48:29.216Z,66.03
2023-03-07T15:51:57.694Z,66.00
2023-03-07T15:55:21.985Z,66.04
2023-03-07T16:02:22.456Z,66.04
2023-03-07T16:09:44.411Z,65.94
2023-03-07T16:13:20.705Z,65.99
2023-03-07T16:16:47.118Z,66.07
2023-03-07T16:20:15.725Z,66.11
2023-03-07T16:24:07.580Z,66.13
2023-03-07T16:31:12.943Z,66.05
2023-03-07T16:34:41.988Z,66.07
2023-03-07T16:38:31.506Z,66.04
2023-03-07T16:42:10.232Z,66.08
2023-03-07T16:45:44.547Z,66.18
2023-03-07T16:49:48.831Z,66.20
2023-03-07T16:53:12.952Z,66.26
2023-03-07T16:56:49.118Z,66.35
2023-03-07T17:00:47.615Z,66.51
2023-03-07T17:04:08.954Z,66.69
2023-03-07T17:11:21.084Z,67.00
2023-03-07T17:14:43.319Z,67.14
2023-03-07T17:21:46.552Z,67.02
2023-03-07T17:25:25.503Z,66.94
2023-03-07T17:29:15.472Z,66.87
2023-03-07T17:33:01.496Z,67.05
2023-03-07T17:37:00.711Z,67.20
2023-03-07T17:40:20.485Z,67.32
2023-03-07T17:43:57.758Z,67.42
2023-03-07T17:59:14.450Z,67.67
2023-03-07T18:02:36.839Z,67.43
2023-03-07T18:06:16.574Z,67.42
2023-03-07T18:10:08.200Z,67.57
2023-03-07T18:13:42.594Z,67.80
2023-03-07T18:25:07.384Z,68.02
2023-03-07T18:32:43.650Z,68.07
2023-03-07T18:50:27.633Z,68.36
2023-03-07T18:53:57.144Z,68.41
2023-03-07T18:57:11.573Z,68.39
2023-03-07T19:00:45.547Z,68.36
2023-03-07T19:04:38.785Z,68.36
2023-03-07T19:11:53.936Z,68.48
2023-03-07T19:15:26.336Z,68.39
2023-03-07T19:32:50.187Z,68.43
2023-03-07T19:36:14.748Z,68.36
2023-03-07T19:39:51.775Z,68.48
2023-03-07T19:43:05.268Z,68.63
2023-03-07T19:46:58.845Z,68.69
2023-03-07T19:50:26.729Z,68.51
2023-03-07T19:53:56.971Z,68.46
2023-03-07T19:57:28.302Z,68.52
2023-03-07T20:01:24.965Z,68.60
2023-03-07T20:05:09.210Z,68.48
2023-03-07T20:08:52.102Z,68.58
2023-03-07T20:12:17.356Z,68.74
2023-03-07T20:19:41.063Z,68.92
2023-03-07T20:23:10.262Z,69.00
2023-03-07T20:26:37.471Z,68.92
2023-03-07T20:34:00.212Z,68.68
2023-03-07T20:41:45.170Z,68.83
2023-03-07T20:45:35.775Z,68.92
2023-03-07T20:52:58.661Z,68.59
2023-03-07T20:56:37.136Z,68.61
2023-03-07T21:00:14.602Z,68.70
2023-03-07T21:03:50.350Z,68.90
2023-03-07T21:07:11.188Z,69.08
2023-03-07T21:10:44.305Z,69.23
2023-03-07T21:21:15.929Z,69.04
2023-03-07T21:24:41.859Z,68.72
2023-03-07T21:28:01.182Z,68.63
2023-03-07T21:31:45.505Z,68.93
2023-03-07T21:35:03.306Z,69.05
2023-03-07T21:42:11.965Z,69.31
2023-03-07T21:45:32.590Z,69.41
2023-03-07T21:48:58.086Z,69.39
2023-03-07T21:52:31.891Z,69.29
2023-03-07T21:56:09.946Z,69.08
2023-03-07T21:59:58.674Z,69.11
2023-03-07T22:03:38.460Z,69.07
2023-03-07T22:07:21.552Z,69.36
2023-03-07T22:10:55.159Z,69.50
2023-03-07T22:14:14.852Z,69.54
2023-03-07T22:17:31.756Z,69.62
2023-03-07T22:21:10.386Z,69.70
2023-03-07T22:24:45.945Z,69.67
2023-03-07T22:28:18.220Z,69.68
2023-03-07T22:31:49.702Z,69.58
2023-03-07T22:35:20.740Z,69.53
2023-03-07T22:38:42.674Z,69.51
2023-03-07T22:42:02.759Z,69.56
2023-03-07T22:45:24.925Z,69.34
2023-03-07T22:48:49.872Z,69.43
2023-03-07T22:52:02.419Z,69.56
2023-03-07T22:55:43.090Z,69.67
2023-03-07T22:59:31.147Z,69.71
2023-03-07T23:02:49.295Z,69.64
2023-03-07T23:06:12.108Z,69.62
2023-03-07T23:09:34.696Z,69.51
2023-03-07T23:12:46.395Z,69.60
2023-03-07T23:16:14.638Z,69.59
2023-03-07T23:19:39.793Z,69.58
2023-03-07T23:22:55.577Z,69.54
2023-03-07T23:26:16.307Z,69.52
2023-03-07T23:29:33.578Z,69.68
2023-03-07T23:32:44.828Z,69.82
2023-03-07T23:36:01.633Z,69.69
2023-03-07T23:39:18.284Z,69.47
2023-03-07T23:42:30.521Z,69.49
2023-03-07T23:45:41.202Z,69.67
2023-03-07T23:48:50.101Z,69.72
2023-03-07T23:52:22.603Z,69.67
2023-03-07T23:55:39.018Z,69.76
2023-03-07T23:59:27.916Z,69.88
